Terminal Aerodrome Forecast
Issued by NWS

Home | Current Version | Previous Version | Text Only | Print | Product List | Glossary On
Versions: 1 2 3 4 5 6 7 8 9 10 11 12 13 14 15 16 17 18 19 20 21 22 23 24 25 26 27 28 29
019
FTUS43 KDLH 240522
TAFHIB
TAF
KHIB 240522Z 2406/2506 35005KT 5SM -TSRA SCT007 OVC028CB
      TEMPO 2406/2409 2SM TSRA BR OVC007CB
     FM240900 09005KT 4SM -SHRA BR SCT004 OVC007
     FM241400 17007KT P6SM SCT007 SCT250
     FM241700 20009KT P6SM SCT250
     FM250100 VRB03KT 4SM -RA BR OVC010=

USA.gov is the U.S. government's official web portal to all federal, state and local government web resources and services.